Merville, Canada
Current Conditions -  °F | °C
As of 8:00 PM on Sunday 25 Jan 2015 (Local Time) from CYQQ Reporting Station
Broken Clouds Broken Clouds  
Wind Chill: 46°   Ceiling: 23000
Heat Index: 46°   Visibility: 12mi
Dew Point: 45°   Wind: 0mph
Humidity: 93%   Direction: NA
Pressure: 30.05"   Gusts: NA
Location:  49.78°N, 125.05°W
Report Text: CYQQ 260400Z 00000KT 12SM FEW020 SCT140 BKN230 08/07 A3005 RMK SF1AS2CS1 VIS LWR N SLP175
Loading
Personal Weather Stations






























Interactive Weather Map New forecast layout! Learn more

10-Day Weather Forecast

Advertisements
Track Severe Weather on mobile